Boldon, United Kingdom
Current Conditions -  °F | °C
As of 3:50 PM on Sunday 21 Dec 2014 (Local Time) from EGNT Reporting Station
Scattered Clouds Scattered Clouds  
Wind Chill: 12°   Ceiling: Unl
Heat Index: 12°   Visibility: 6mi
Dew Point:   Wind: 14mph
Humidity: 77%   Direction: 240°WSW
Pressure: 29.77"   Gusts: NA
Location:  54.94°N, 1.45°W
Report Text: EGNT 211550Z 24012KT 210V270 9999 SCT020 12/08 Q1008
Loading
Personal Weather Stations






























Interactive Weather Map New forecast layout! Learn more

10-Day Weather Forecast

Advertisements
Track Severe Weather on mobile